createdAt,value
2023-03-23T20:06:59.004Z,100311.94
2023-03-23T20:09:26.694Z,100312.97
2023-03-23T20:11:54.426Z,100307.53
2023-03-23T20:14:22.134Z,100310.09
2023-03-23T20:16:49.949Z,100317.50
2023-03-23T20:19:17.641Z,100311.09
2023-03-23T20:25:16.445Z,100307.53
2023-03-23T20:27:46.404Z,100310.09
2023-03-23T20:30:14.081Z,100315.50
2023-03-23T20:32:41.634Z,100322.94
2023-03-23T20:35:10.163Z,100313.81
2023-03-23T20:37:38.648Z,100312.97
2023-03-23T20:40:07.243Z,100313.81
2023-03-23T20:42:34.923Z,100319.22
2023-03-23T20:45:04.209Z,100313.81
2023-03-23T20:47:32.555Z,100306.50
2023-03-23T20:50:00.832Z,100302.13
2023-03-23T20:52:28.427Z,100319.22
2023-03-23T20:57:54.986Z,100305.00
2023-03-23T21:00:24.128Z,100306.66
2023-03-23T21:02:54.169Z,100293.28
2023-03-23T21:05:22.613Z,100294.16
2023-03-23T21:07:51.036Z,100288.56
2023-03-23T21:10:18.786Z,100283.31
2023-03-23T21:12:46.541Z,100270.25
2023-03-23T21:15:14.177Z,100279.56
2023-03-23T21:17:43.345Z,100282.28
2023-03-23T21:20:11.460Z,100267.75
2023-03-23T21:22:39.284Z,100273.31
2023-03-23T21:25:07.239Z,100269.59
2023-03-23T21:27:34.898Z,100262.47
2023-03-23T21:30:02.560Z,100263.47
2023-03-23T21:32:30.204Z,100264.50
2023-03-23T21:35:02.493Z,100274.16
2023-03-23T21:37:30.707Z,100262.47
2023-03-23T21:39:58.413Z,100264.50
2023-03-23T21:42:30.429Z,100258.22
2023-03-23T21:44:58.148Z,100253.13
2023-03-23T21:47:26.590Z,100255.50
2023-03-23T21:49:56.742Z,100265.34
2023-03-23T21:52:25.739Z,100264.50
2023-03-23T21:54:53.503Z,100258.22
2023-03-23T21:57:21.353Z,100262.81
2023-03-23T21:59:49.079Z,100263.63
2023-03-23T22:02:17.371Z,100261.97
2023-03-23T22:04:45.225Z,100251.13
2023-03-23T22:07:13.663Z,100241.28
2023-03-23T22:09:44.895Z,100253.13
2023-03-23T22:12:12.686Z,100254.84
2023-03-23T22:14:40.471Z,100246.72
2023-03-23T22:17:08.880Z,100249.41
2023-03-23T22:19:36.749Z,100242.28
2023-03-23T22:22:05.912Z,100242.13
2023-03-23T22:24:33.723Z,100239.97
2023-03-23T22:27:02.896Z,100233.69
2023-03-23T22:29:30.672Z,100238.25
2023-03-23T22:31:58.532Z,100236.22
2023-03-23T22:34:26.690Z,100228.25
2023-03-23T22:36:56.036Z,100226.25
2023-03-23T22:39:23.879Z,100219.97
2023-03-23T22:41:51.722Z,100223.72
2023-03-23T22:44:20.990Z,100224.53
2023-03-23T22:46:48.918Z,100225.38
2023-03-23T22:49:16.781Z,100219.97
2023-03-23T22:51:44.593Z,100227.09
2023-03-23T22:54:12.496Z,100221.69
2023-03-23T22:56:40.314Z,100214.53
2023-03-23T22:59:08.285Z,100206.25
2023-03-23T23:01:37.767Z,100206.25
2023-03-23T23:04:06.449Z,100220.69
2023-03-23T23:06:34.416Z,100201.72
2023-03-23T23:09:02.338Z,100200.00
2023-03-23T23:11:30.187Z,100203.72
2023-03-23T23:13:58.100Z,100195.75
2023-03-23T23:16:26.450Z,100192.34
2023-03-23T23:18:55.759Z,100187.78
2023-03-23T23:21:24.068Z,100187.63
2023-03-23T23:23:52.001Z,100184.06
2023-03-23T23:26:19.864Z,100181.53
2023-03-23T23:28:48.540Z,100182.34
2023-03-23T23:31:22.594Z,100175.25
2023-03-23T23:33:50.745Z,100168.13
2023-03-23T23:36:21.234Z,100168.13
2023-03-23T23:38:49.228Z,100163.56
2023-03-23T23:41:17.114Z,100162.72
2023-03-23T23:43:45.036Z,100171.00
2023-03-23T23:46:12.972Z,100157.13
2023-03-23T23:48:42.132Z,100147.47
2023-03-23T23:51:14.594Z,100147.47
2023-03-23T23:53:44.379Z,100149.19
2023-03-23T23:56:12.272Z,100139.34
2023-03-23T23:58:40.195Z,100141.38
